createdAt,value
2018-10-11T00:02:16.269Z,2.47
2018-10-11T00:04:47.380Z,2.13
2018-10-11T00:07:17.768Z,2.27
2018-10-11T00:09:48.167Z,2.40
2018-10-11T00:12:19.342Z,2.20
2018-10-11T00:14:49.724Z,2.50
2018-10-11T00:17:20.886Z,2.70
2018-10-11T00:19:52.070Z,2.70
2018-10-11T00:22:22.438Z,2.40
2018-10-11T00:24:53.587Z,2.57
2018-10-11T00:27:23.984Z,2.03
2018-10-11T00:29:54.367Z,2.50
2018-10-11T00:32:24.746Z,2.33
2018-10-11T00:37:36.878Z,2.20
2018-10-11T00:40:07.265Z,2.43
2018-10-11T00:42:59.077Z,2.33
2018-10-11T00:45:29.482Z,2.40
2018-10-11T00:48:00.624Z,2.30
2018-10-11T00:50:31.790Z,2.50
2018-10-11T00:53:02.188Z,1.90
2018-10-11T00:55:33.349Z,2.77
2018-10-11T00:58:03.731Z,2.47
2018-10-11T01:00:34.146Z,2.10
2018-10-11T01:03:04.542Z,2.40
2018-10-11T01:05:34.929Z,2.20
2018-10-11T01:08:05.331Z,1.97
2018-10-11T01:10:35.721Z,2.03
2018-10-11T01:13:06.114Z,1.67
2018-10-11T01:15:37.289Z,1.33
2018-10-11T01:18:07.603Z,1.77
2018-10-11T01:20:37.997Z,2.30
2018-10-11T01:23:08.391Z,2.43
2018-10-11T01:25:59.096Z,2.60
2018-10-11T01:28:50.919Z,1.70
2018-10-11T01:31:28.637Z,2.07
2018-10-11T01:33:59.042Z,2.13
2018-10-11T01:36:29.436Z,1.83
2018-10-11T01:38:59.835Z,1.97
2018-10-11T01:41:30.157Z,2.10
2018-10-11T01:44:00.549Z,1.93
2018-10-11T01:46:35.006Z,2.30
2018-10-11T01:49:05.367Z,2.20
2018-10-11T01:51:35.740Z,1.70
2018-10-11T01:54:07.091Z,1.77
2018-10-11T01:56:37.411Z,1.67
2018-10-11T01:59:07.799Z,1.60
2018-10-11T02:01:38.186Z,2.10
2018-10-11T02:04:08.853Z,2.27
2018-10-11T02:06:39.250Z,2.03
2018-10-11T02:09:09.652Z,2.40
2018-10-11T02:11:40.045Z,1.30
2018-10-11T02:14:10.368Z,1.97
2018-10-11T02:16:40.758Z,1.50
2018-10-11T02:19:11.147Z,2.07
2018-10-11T02:21:43.562Z,2.20
2018-10-11T02:24:13.896Z,1.80
2018-10-11T02:26:45.046Z,1.83
2018-10-11T02:29:16.204Z,1.27
2018-10-11T02:31:46.611Z,1.40
2018-10-11T02:34:17.973Z,1.80
2018-10-11T02:36:50.081Z,1.97
2018-10-11T02:39:39.820Z,1.57
2018-10-11T02:42:10.903Z,1.90
2018-10-11T02:45:02.659Z,2.00
2018-10-11T02:47:33.038Z,1.77
2018-10-11T02:50:03.428Z,1.73
2018-10-11T02:52:34.594Z,1.80
2018-10-11T02:55:04.966Z,1.60
2018-10-11T02:58:30.321Z,1.60
2018-10-11T03:01:01.465Z,1.40
2018-10-11T03:03:32.615Z,1.93
2018-10-11T03:06:03.802Z,2.00
2018-10-11T03:08:36.235Z,2.00
2018-10-11T03:11:06.818Z,1.90
2018-10-11T03:13:37.219Z,1.60
2018-10-11T03:16:08.623Z,1.97
2018-10-11T03:18:39.862Z,1.63
2018-10-11T03:21:10.259Z,1.97
2018-10-11T03:24:01.987Z,2.07
2018-10-11T03:26:51.755Z,2.10
2018-10-11T03:29:22.149Z,2.40
2018-10-11T03:31:53.304Z,2.30
2018-10-11T03:34:23.710Z,2.07
2018-10-11T03:36:54.855Z,2.00
2018-10-11T03:39:26.007Z,2.20
2018-10-11T03:41:57.169Z,2.13
2018-10-11T03:44:27.549Z,2.40
2018-10-11T03:46:57.937Z,2.13
2018-10-11T03:49:28.330Z,2.50
2018-10-11T03:51:58.710Z,2.47
2018-10-11T03:54:33.176Z,2.90
2018-10-11T03:57:04.337Z,2.10
2018-10-11T03:59:34.729Z,2.80
2018-10-11T04:02:05.116Z,2.80
2018-10-11T04:04:35.516Z,2.83
2018-10-11T04:07:05.898Z,2.93
2018-10-11T04:09:36.282Z,3.37
2018-10-11T04:12:06.617Z,3.23
2018-10-11T04:14:39.062Z,2.93
2018-10-11T04:17:10.151Z,3.10
2018-10-11T04:20:01.972Z,3.10
2018-10-11T04:22:39.527Z,3.00
2018-10-11T04:25:10.700Z,3.60
2018-10-11T04:27:41.083Z,3.20
2018-10-11T04:30:12.278Z,3.10
2018-10-11T04:32:43.331Z,3.50
2018-10-11T04:35:13.714Z,3.20
2018-10-11T04:40:25.838Z,2.97
2018-10-11T04:42:56.321Z,3.33
2018-10-11T04:45:26.612Z,3.10
2018-10-11T04:47:57.026Z,3.50
2018-10-11T04:50:27.406Z,3.40
2018-10-11T04:52:57.796Z,3.50
2018-10-11T04:55:30.245Z,3.30
2018-10-11T04:58:00.635Z,3.33
2018-10-11T05:00:31.020Z,3.10
2018-10-11T05:03:01.433Z,2.90
2018-10-11T05:05:31.819Z,3.37
2018-10-11T05:08:02.479Z,3.50
2018-10-11T05:10:33.658Z,3.30
2018-10-11T05:13:08.124Z,3.27
2018-10-11T05:15:38.513Z,3.40
2018-10-11T05:18:08.922Z,3.00
2018-10-11T05:20:39.307Z,3.33
2018-10-11T05:23:09.685Z,3.13
2018-10-11T05:25:47.295Z,3.07
2018-10-11T05:28:39.850Z,3.03
2018-10-11T05:31:10.190Z,3.50
2018-10-11T05:33:40.591Z,3.10
2018-10-11T05:36:12.012Z,3.10
2018-10-11T05:38:42.423Z,3.23
2018-10-11T05:41:13.613Z,2.47
2018-10-11T05:43:43.994Z,2.77
2018-10-11T05:46:15.165Z,3.07
2018-10-11T05:48:45.560Z,2.80
2018-10-11T05:51:17.742Z,3.10
2018-10-11T05:53:48.145Z,3.30
2018-10-11T05:56:18.528Z,3.07
2018-10-11T05:58:53.020Z,3.07
2018-10-11T06:01:24.469Z,3.20
2018-10-11T06:03:54.836Z,3.07
2018-10-11T06:06:26.267Z,3.40
2018-10-11T06:08:58.641Z,3.70
2018-10-11T06:11:29.038Z,2.87
2018-10-11T06:14:00.219Z,2.53
2018-10-11T06:16:30.578Z,2.67
2018-10-11T06:19:00.895Z,2.63
2018-10-11T06:21:33.878Z,2.80
2018-10-11T06:24:04.197Z,3.00
2018-10-11T06:26:55.941Z,2.53
2018-10-11T06:29:26.334Z,2.67
2018-10-11T06:31:57.682Z,2.77
2018-10-11T06:34:28.079Z,2.67
2018-10-11T06:36:59.238Z,2.60
2018-10-11T06:39:29.618Z,2.57
2018-10-11T06:42:01.063Z,3.13
2018-10-11T06:44:31.366Z,2.63
2018-10-11T06:47:22.150Z,2.83
2018-10-11T06:49:52.675Z,2.47
2018-10-11T06:52:22.934Z,2.87
2018-10-11T06:54:53.425Z,2.37
2018-10-11T06:57:23.827Z,2.33
2018-10-11T06:59:54.203Z,2.43
2018-10-11T07:02:26.645Z,2.20
2018-10-11T07:04:57.026Z,1.90
2018-10-11T07:07:27.422Z,2.23
2018-10-11T07:09:58.847Z,1.90
2018-10-11T07:12:29.250Z,1.87
2018-10-11T07:14:59.632Z,2.10
2018-10-11T07:17:36.167Z,2.20
2018-10-11T07:20:06.555Z,1.70
2018-10-11T07:22:36.941Z,1.87
2018-10-11T07:25:07.325Z,1.70
2018-10-11T07:27:37.705Z,1.60
2018-10-11T07:30:08.035Z,1.70
2018-10-11T07:32:41.489Z,1.93
2018-10-11T07:35:11.906Z,1.50
2018-10-11T07:37:42.974Z,1.77
2018-10-11T07:40:14.457Z,1.47
2018-10-11T07:42:44.787Z,1.20
2018-10-11T07:45:20.291Z,1.77
2018-10-11T07:47:50.690Z,1.57
2018-10-11T07:50:21.092Z,1.50
2018-10-11T07:52:51.587Z,1.43
2018-10-11T07:55:29.755Z,1.40
2018-10-11T07:58:00.164Z,1.40
2018-10-11T08:00:30.564Z,1.63
2018-10-11T08:03:02.989Z,1.70
2018-10-11T08:05:33.412Z,1.70
2018-10-11T08:08:03.798Z,1.30
2018-10-11T08:10:40.550Z,0.93
2018-10-11T08:13:10.749Z,1.83
2018-10-11T08:15:42.122Z,1.30
2018-10-11T08:18:12.534Z,1.50
2018-10-11T08:20:43.695Z,1.60
2018-10-11T08:23:14.093Z,2.10
2018-10-11T08:25:45.664Z,1.80
2018-10-11T08:28:16.415Z,1.90
2018-10-11T08:30:46.793Z,1.60
2018-10-11T08:33:17.281Z,1.37
2018-10-11T08:35:47.509Z,1.73
2018-10-11T08:41:05.194Z,1.43
2018-10-11T08:43:35.602Z,1.10
2018-10-11T08:46:05.899Z,1.50
2018-10-11T08:48:36.235Z,1.37
2018-10-11T08:51:06.553Z,1.10
2018-10-11T08:53:36.965Z,1.33
2018-10-11T08:56:08.206Z,1.40
2018-10-11T08:58:38.509Z,1.37
2018-10-11T09:01:08.904Z,1.27
2018-10-11T09:04:00.863Z,1.17
2018-10-11T09:06:31.134Z,1.20
2018-10-11T09:09:01.524Z,1.40
2018-10-11T09:11:32.041Z,1.40
2018-10-11T09:14:02.308Z,1.23
2018-10-11T09:16:32.708Z,1.20
2018-10-11T09:19:03.878Z,1.23
2018-10-11T09:21:34.263Z,1.40
2018-10-11T09:24:04.584Z,1.27
2018-10-11T09:26:34.980Z,1.40
2018-10-11T09:29:13.160Z,1.20
2018-10-11T09:31:43.565Z,1.30
2018-10-11T09:34:15.415Z,1.50
2018-10-11T09:36:47.089Z,1.23
2018-10-11T09:39:16.224Z,1.17
2018-10-11T09:41:46.619Z,1.73
2018-10-11T09:44:17.763Z,1.77
2018-10-11T09:46:48.356Z,1.40
2018-10-11T09:49:18.755Z,1.30
2018-10-11T09:51:49.135Z,1.37
2018-10-11T09:54:19.590Z,1.30
2018-10-11T09:56:51.727Z,1.80
2018-10-11T09:59:22.878Z,1.83
2018-10-11T10:01:54.708Z,1.80
2018-10-11T10:04:24.222Z,1.50
2018-10-11T10:06:54.616Z,1.63
2018-10-11T10:09:27.077Z,1.97
2018-10-11T10:11:58.173Z,1.40
2018-10-11T10:14:28.569Z,1.63
2018-10-11T10:17:01.023Z,1.57
2018-10-11T10:19:31.407Z,2.00
2018-10-11T10:22:01.726Z,2.03
2018-10-11T10:24:32.124Z,1.77
2018-10-11T10:27:02.591Z,1.13
2018-10-11T10:29:32.916Z,1.63
2018-10-11T10:32:04.340Z,1.90
2018-10-11T10:34:35.752Z,1.73
2018-10-11T10:37:06.076Z,1.43
2018-10-11T10:39:36.475Z,1.70
2018-10-11T10:42:07.564Z,1.20
2018-10-11T10:44:37.937Z,1.60
2018-10-11T10:47:08.364Z,1.67
2018-10-11T10:49:38.935Z,2.40
2018-10-11T10:52:09.329Z,1.90
2018-10-11T10:54:39.744Z,2.07
2018-10-11T10:57:10.131Z,1.57
2018-10-11T10:59:47.705Z,1.90
2018-10-11T11:02:18.090Z,2.17
2018-10-11T11:04:48.472Z,1.70
2018-10-11T11:07:23.019Z,1.97
2018-10-11T11:09:53.340Z,2.10
2018-10-11T11:12:23.734Z,1.80
2018-10-11T11:14:54.137Z,2.13
2018-10-11T11:17:24.525Z,2.33
2018-10-11T11:19:54.892Z,2.03
2018-10-11T11:22:25.290Z,1.80
2018-10-11T11:24:55.671Z,2.20
2018-10-11T11:27:26.058Z,2.20
2018-10-11T11:29:56.483Z,2.17
2018-10-11T11:32:26.866Z,2.33
2018-10-11T11:34:57.271Z,2.30
2018-10-11T11:37:28.674Z,2.00
2018-10-11T11:39:59.112Z,1.90
2018-10-11T11:42:29.465Z,2.30
2018-10-11T11:45:00.044Z,1.80
2018-10-11T11:47:31.469Z,2.47
2018-10-11T11:50:03.909Z,1.83
2018-10-11T11:52:35.086Z,1.80
2018-10-11T11:55:05.472Z,2.03
2018-10-11T11:57:36.624Z,2.37
2018-10-11T12:00:07.799Z,1.93
2018-10-11T12:02:38.239Z,2.33
2018-10-11T12:05:08.655Z,2.60
2018-10-11T12:07:38.976Z,2.90
2018-10-11T12:10:09.367Z,2.50
2018-10-11T12:12:39.764Z,2.77
2018-10-11T12:15:10.354Z,2.60
2018-10-11T12:17:40.750Z,2.70
2018-10-11T12:20:11.148Z,2.43
2018-10-11T12:22:41.561Z,2.67
2018-10-11T12:25:31.335Z,2.90
2018-10-11T12:28:01.666Z,2.90
2018-10-11T12:30:39.368Z,2.90
2018-10-11T12:33:11.824Z,3.30
2018-10-11T12:35:42.208Z,2.77
2018-10-11T12:38:12.530Z,2.80
2018-10-11T12:40:42.939Z,2.93
2018-10-11T12:43:13.257Z,3.00
2018-10-11T12:45:44.675Z,2.90
2018-10-11T12:48:15.075Z,2.87
2018-10-11T12:50:46.239Z,3.70
2018-10-11T12:53:16.631Z,2.70
2018-10-11T12:58:31.328Z,2.77
2018-10-11T13:01:02.635Z,2.90
2018-10-11T13:03:32.806Z,2.80
2018-10-11T13:06:03.965Z,2.77
2018-10-11T13:08:34.365Z,3.30
2018-10-11T13:11:04.746Z,2.77
2018-10-11T13:13:35.130Z,2.67
2018-10-11T13:16:06.307Z,3.00
2018-10-11T13:18:36.687Z,2.93
2018-10-11T13:21:07.850Z,2.50
2018-10-11T13:23:40.302Z,2.60
2018-10-11T13:26:10.684Z,2.47
2018-10-11T13:28:43.144Z,3.07
2018-10-11T13:31:13.515Z,3.00
2018-10-11T13:33:43.910Z,2.53
2018-10-11T13:36:14.229Z,2.53
2018-10-11T13:38:48.724Z,2.73
2018-10-11T13:41:19.226Z,3.03
2018-10-11T13:43:49.504Z,2.90
2018-10-11T13:46:23.989Z,2.50
2018-10-11T13:48:55.147Z,2.80
2018-10-11T13:51:25.538Z,2.60
2018-10-11T13:53:58.397Z,3.10
2018-10-11T13:56:26.349Z,2.90
2018-10-11T13:58:56.768Z,2.43
2018-10-11T14:01:27.059Z,2.80
2018-10-11T14:03:57.452Z,3.00
2018-10-11T14:06:28.869Z,3.13
2018-10-11T14:08:59.280Z,3.07
2018-10-11T14:11:29.676Z,3.10
2018-10-11T14:14:00.060Z,2.87
2018-10-11T14:16:30.664Z,2.90
2018-10-11T14:19:01.061Z,3.00
2018-10-11T14:21:31.435Z,3.17
2018-10-11T14:24:01.911Z,2.77
2018-10-11T14:26:32.245Z,3.17
2018-10-11T14:29:02.641Z,3.03
2018-10-11T14:31:33.058Z,3.00
2018-10-11T14:34:03.457Z,2.90
2018-10-11T14:36:33.918Z,2.80
2018-10-11T14:39:04.249Z,3.27
2018-10-11T14:41:34.621Z,2.87
2018-10-11T14:44:05.773Z,2.53
2018-10-11T14:46:39.141Z,2.60
2018-10-11T14:49:09.543Z,2.87
2018-10-11T14:51:43.243Z,2.33
2018-10-11T14:54:11.108Z,3.33
2018-10-11T14:57:00.596Z,2.70
2018-10-11T14:59:31.032Z,3.03
2018-10-11T15:02:21.527Z,2.33
2018-10-11T15:04:51.948Z,2.63
2018-10-11T15:07:42.712Z,3.23
2018-10-11T15:10:13.127Z,2.53
2018-10-11T15:12:44.284Z,2.67
2018-10-11T15:15:14.662Z,2.70
2018-10-11T15:17:47.876Z,2.10
2018-10-11T15:20:18.184Z,2.67
2018-10-11T15:22:48.561Z,2.97
2018-10-11T15:25:18.977Z,2.73
2018-10-11T15:27:49.288Z,3.57
2018-10-11T15:30:19.658Z,2.43
2018-10-11T15:32:56.176Z,2.60
2018-10-11T15:35:27.309Z,3.13
2018-10-11T15:37:57.967Z,3.20
2018-10-11T15:40:29.080Z,3.00
2018-10-11T15:42:59.444Z,2.53
2018-10-11T15:45:29.827Z,2.83
2018-10-11T15:48:00.233Z,3.00
2018-10-11T15:50:32.979Z,3.10
2018-10-11T15:53:06.726Z,2.83
2018-10-11T15:55:58.943Z,2.83
2018-10-11T15:58:31.424Z,2.77
2018-10-11T16:01:02.459Z,2.80
2018-10-11T16:03:35.402Z,2.57
2018-10-11T16:06:05.813Z,2.47
2018-10-11T16:08:36.231Z,3.00
2018-10-11T16:13:48.409Z,2.60
2018-10-11T16:16:18.787Z,2.53
2018-10-11T16:18:49.111Z,2.70
2018-10-11T16:21:19.465Z,2.97
2018-10-11T16:23:58.034Z,2.70
2018-10-11T16:26:53.300Z,2.90
2018-10-11T16:29:24.441Z,2.43
2018-10-11T16:31:55.611Z,2.60
2018-10-11T16:34:26.988Z,3.03
2018-10-11T16:37:18.793Z,2.40
2018-10-11T16:39:49.201Z,2.70
2018-10-11T16:42:19.585Z,3.03
2018-10-11T16:44:49.969Z,3.10
2018-10-11T16:47:20.375Z,3.23
2018-10-11T16:49:50.722Z,3.10
2018-10-11T16:52:24.670Z,3.40
2018-10-11T16:54:57.623Z,3.17
2018-10-11T16:57:28.029Z,2.70
2018-10-11T16:59:58.419Z,2.60
2018-10-11T17:02:28.813Z,2.47
2018-10-11T17:05:21.322Z,2.70
2018-10-11T17:07:54.358Z,3.17
2018-10-11T17:10:27.131Z,2.70
2018-10-11T17:13:10.537Z,2.50
2018-10-11T17:15:40.949Z,2.83
2018-10-11T17:18:12.098Z,3.00
2018-10-11T17:20:43.196Z,2.87
2018-10-11T17:23:16.258Z,2.50
2018-10-11T17:25:48.647Z,2.60
2018-10-11T17:28:25.859Z,3.10
2018-10-11T17:30:56.260Z,2.97
2018-10-11T17:33:32.190Z,2.93
2018-10-11T17:36:02.526Z,2.70
2018-10-11T17:38:36.647Z,3.20
2018-10-11T17:41:13.197Z,2.80
2018-10-11T17:43:43.623Z,3.67
2018-10-11T17:46:13.912Z,3.10
2018-10-11T17:48:47.234Z,2.87
2018-10-11T17:51:17.633Z,3.33
2018-10-11T17:53:50.943Z,3.23
2018-10-11T17:56:27.624Z,3.00
2018-10-11T17:59:00.436Z,3.13
2018-10-11T18:01:30.826Z,3.10
2018-10-11T18:04:02.007Z,2.53
2018-10-11T18:06:36.896Z,2.93
2018-10-11T18:09:09.344Z,2.77
2018-10-11T18:11:40.676Z,3.07
2018-10-11T18:14:11.695Z,2.83
2018-10-11T18:16:52.317Z,2.83
2018-10-11T18:19:22.899Z,2.70
2018-10-11T18:21:55.754Z,2.50
2018-10-11T18:24:29.097Z,3.10
2018-10-11T18:27:20.907Z,3.00
2018-10-11T18:29:55.387Z,3.23
2018-10-11T18:32:25.959Z,3.40
2018-10-11T18:34:59.254Z,3.17
2018-10-11T18:37:29.653Z,2.90
2018-10-11T18:40:02.862Z,2.97
2018-10-11T18:42:35.940Z,2.83
2018-10-11T18:45:07.084Z,3.20
2018-10-11T18:47:43.590Z,2.83
2018-10-11T18:50:13.967Z,2.93
2018-10-11T18:52:45.119Z,2.70
2018-10-11T18:55:16.223Z,3.03
2018-10-11T18:57:49.464Z,3.17
2018-10-11T19:00:19.760Z,2.67
2018-10-11T19:02:50.150Z,3.00
2018-10-11T19:05:30.597Z,3.20
2018-10-11T19:08:03.652Z,3.13
2018-10-11T19:10:38.432Z,4.10
2018-10-11T19:13:08.811Z,3.10
2018-10-11T19:15:39.984Z,3.23
2018-10-11T19:18:10.376Z,3.30
2018-10-11T19:20:43.428Z,3.10
2018-10-11T19:23:13.792Z,4.00
2018-10-11T19:25:44.963Z,2.90
2018-10-11T19:31:00.536Z,2.30
2018-10-11T19:33:30.773Z,1.97
2018-10-11T19:36:02.586Z,2.87
2018-10-11T19:38:33.033Z,2.70
2018-10-11T19:41:03.426Z,1.63
2018-10-11T19:43:35.797Z,1.73
2018-10-11T19:46:13.535Z,1.83
2018-10-11T19:48:43.855Z,2.30
2018-10-11T19:51:16.991Z,2.50
2018-10-11T19:53:47.412Z,2.47
2018-10-11T19:56:17.948Z,2.27
2018-10-11T19:58:50.269Z,2.30
2018-10-11T20:01:42.638Z,2.83
2018-10-11T20:04:13.767Z,2.23
2018-10-11T20:06:44.159Z,3.00
2018-10-11T20:09:14.578Z,2.27
2018-10-11T20:11:44.960Z,2.50
2018-10-11T20:14:18.392Z,2.57
2018-10-11T20:16:52.441Z,1.87
2018-10-11T20:19:26.477Z,2.10
2018-10-11T20:22:01.348Z,2.73
2018-10-11T20:24:31.743Z,1.90
2018-10-11T20:27:07.258Z,2.23
2018-10-11T20:29:38.349Z,2.30
2018-10-11T20:32:08.743Z,2.50
2018-10-11T20:34:39.156Z,2.67
2018-10-11T20:37:10.246Z,2.43
2018-10-11T20:39:47.969Z,2.37
2018-10-11T20:42:21.262Z,2.20
2018-10-11T20:44:51.666Z,2.47
2018-10-11T20:47:42.469Z,2.63
2018-10-11T20:50:12.867Z,3.13
2018-10-11T20:52:43.242Z,2.70
2018-10-11T20:55:13.660Z,2.57
2018-10-11T20:57:43.991Z,2.20
2018-10-11T21:00:14.386Z,1.90
2018-10-11T21:02:44.797Z,2.50
2018-10-11T21:05:15.197Z,2.40
2018-10-11T21:07:48.277Z,2.37
2018-10-11T21:10:18.689Z,2.60
2018-10-11T21:12:49.060Z,2.20
2018-10-11T21:15:20.083Z,2.47
2018-10-11T21:17:50.432Z,2.30
2018-10-11T21:20:20.942Z,2.10
2018-10-11T21:22:51.090Z,2.47
2018-10-11T21:25:21.497Z,2.63
2018-10-11T21:27:52.658Z,2.27
2018-10-11T21:30:23.036Z,2.20
2018-10-11T21:32:55.378Z,2.00
2018-10-11T21:35:44.859Z,2.03
2018-10-11T21:38:15.274Z,1.63
2018-10-11T21:40:45.648Z,2.50
2018-10-11T21:43:16.043Z,2.50
2018-10-11T21:46:06.781Z,1.97
2018-10-11T21:48:37.148Z,2.23
2018-10-11T21:51:07.548Z,2.23
2018-10-11T21:53:38.713Z,2.20
2018-10-11T21:56:09.099Z,2.00
2018-10-11T21:58:39.493Z,2.37
2018-10-11T22:01:10.912Z,2.30
2018-10-11T22:03:41.312Z,1.90
2018-10-11T22:06:12.459Z,2.37
2018-10-11T22:08:42.864Z,2.87
2018-10-11T22:11:13.243Z,2.23
2018-10-11T22:13:43.823Z,2.20
2018-10-11T22:16:14.225Z,2.40
2018-10-11T22:18:47.674Z,2.10
2018-10-11T22:21:18.823Z,2.50
2018-10-11T22:23:49.997Z,2.50
2018-10-11T22:26:20.400Z,2.33
2018-10-11T22:28:50.788Z,2.17
2018-10-11T22:31:21.190Z,2.90
2018-10-11T22:34:12.994Z,2.50
2018-10-11T22:36:43.402Z,2.23
2018-10-11T22:39:17.833Z,2.33
2018-10-11T22:41:48.226Z,2.70
2018-10-11T22:44:18.636Z,2.07
2018-10-11T22:46:49.014Z,2.17
2018-10-11T22:49:19.402Z,2.97
2018-10-11T22:51:49.810Z,2.30
2018-10-11T22:54:20.195Z,2.50
2018-10-11T22:56:50.608Z,3.10
2018-10-11T22:59:21.771Z,2.47
2018-10-11T23:01:52.170Z,2.47
2018-10-11T23:04:23.338Z,2.37
2018-10-11T23:06:53.754Z,1.87
2018-10-11T23:09:24.919Z,2.93
2018-10-11T23:11:55.307Z,2.37
2018-10-11T23:14:25.778Z,1.93
2018-10-11T23:16:56.121Z,2.73
2018-10-11T23:19:26.502Z,2.30
2018-10-11T23:21:57.670Z,2.93
2018-10-11T23:24:28.067Z,2.13
2018-10-11T23:26:59.213Z,2.40
2018-10-11T23:29:29.608Z,2.43
2018-10-11T23:31:59.938Z,2.70
2018-10-11T23:34:30.317Z,2.43
2018-10-11T23:37:00.943Z,2.50
2018-10-11T23:39:31.325Z,2.47
2018-10-11T23:42:01.720Z,2.97
2018-10-11T23:47:23.302Z,2.70
2018-10-11T23:49:53.704Z,3.10
2018-10-11T23:52:43.465Z,3.30
2018-10-11T23:55:15.925Z,3.27
2018-10-11T23:57:46.307Z,3.30
